Navios Pollux — 3FPO2 — position and weather

sailwx.info

Track history (hours):
 
Tides and Currents Weather Stations Pressure Air Temp Water Temp Dewpoint Dewpoint Depression Visibility Wind Speed Wind Dir Waves Ship Positions

Navios Pollux

Last reported at 2014-Nov-01 23:33 UTC. Time now 2014-Dec-18 12:23 UTC.
Position S 29°42' E 031°51'.
Warning: this ship's position is 46 days out of date.

Length 292 m; draft 17.4 m.

Type: Cargo ship. MMSI: 370290000.

Date/timePositionNaut miles runAvg speedWind from/ knotsBaromVisibWave heightAir tempDewpointWater temp
2014-Nov-01 23:33S 29°42' E 031°51'7 7.0
2014-Nov-01 22:33S 29°48' E 031°46'7 6.8
2014-Nov-01 21:33S 29°53' E 031°42'7 6.6
2014-Nov-01 20:32S 29°58' E 031°37'6 6.4
2014-Nov-01 19:33S 30°03' E 031°32'6 6.1
2014-Nov-01 18:33S 30°07' E 031°26'6 5.8
2014-Nov-01 17:33S 30°11' E 031°21'6 5.7
2014-Nov-01 16:33S 30°15' E 031°17'6 6.4
2014-Nov-01 15:33S 30°20' E 031°12'7 6.8
2014-Nov-01 14:33S 30°25' E 031°07'83 6.3
2014-Nov-01 01:14S 31°28' E 030°03'4 5.3
2014-Nov-01 00:33S 31°31' E 030°01'11 5.4
2014-Oct-31 22:26S 31°39' E 029°52'273 6.2
2014-Oct-30 02:32S 34°28' E 025°36'  
Track history (hours):
 
Tides and Currents Weather Stations Pressure Air Temp Water Temp Dewpoint Dewpoint Depression Visibility Wind Speed Wind Dir Waves Ship Positions

Navios Pollux

Last reported at 2014-Nov-01 23:33 UTC. Time now 2014-Dec-18 12:23 UTC.
Position S 29°42' E 031°51'.
Warning: this ship's position is 46 days out of date.

Length 292 m; draft 17.4 m.

Type: Cargo ship. MMSI: 370290000.

Date/timePositionNaut miles runAvg speedWind from/ knotsBaromVisibWave heightAir tempDewpointWater temp
2014-Nov-01 23:33S 29°42' E 031°51'7 7.0
2014-Nov-01 22:33S 29°48' E 031°46'7 6.8
2014-Nov-01 21:33S 29°53' E 031°42'7 6.6
2014-Nov-01 20:32S 29°58' E 031°37'6 6.4
2014-Nov-01 19:33S 30°03' E 031°32'6 6.1
2014-Nov-01 18:33S 30°07' E 031°26'6 5.8
2014-Nov-01 17:33S 30°11' E 031°21'6 5.7
2014-Nov-01 16:33S 30°15' E 031°17'6 6.4
2014-Nov-01 15:33S 30°20' E 031°12'7 6.8
2014-Nov-01 14:33S 30°25' E 031°07'83 6.3
2014-Nov-01 01:14S 31°28' E 030°03'4 5.3
2014-Nov-01 00:33S 31°31' E 030°01'11 5.4
2014-Oct-31 22:26S 31°39' E 029°52'273 6.2
2014-Oct-30 02:32S 34°28' E 025°36'  

Dump ship's entire track history